createdAt,value
2023-04-15T00:01:29.028Z,100644.91
2023-04-15T00:03:31.048Z,100644.84
2023-04-15T00:05:33.300Z,100644.78
2023-04-15T00:07:36.221Z,100648.22
2023-04-15T00:09:38.101Z,100643.09
2023-04-15T00:11:39.831Z,100645.44
2023-04-15T00:13:42.015Z,100654.16
2023-04-15T00:15:43.974Z,100655.78
2023-04-15T00:17:46.081Z,100655.88
2023-04-15T00:19:47.869Z,100654.13
2023-04-15T00:21:49.653Z,100657.47
2023-04-15T00:23:53.816Z,100660.06
2023-04-15T00:25:55.763Z,100660.03
2023-04-15T00:28:02.832Z,100667.63
2023-04-15T00:30:05.425Z,100670.13
2023-04-15T00:32:07.526Z,100675.31
2023-04-15T00:34:09.542Z,100669.31
2023-04-15T00:36:11.290Z,100677.00
2023-04-15T00:38:13.219Z,100677.75
2023-04-15T00:40:19.753Z,100679.44
2023-04-15T00:42:21.962Z,100680.06
2023-04-15T00:44:23.992Z,100680.84
2023-04-15T00:46:28.672Z,100676.63
2023-04-15T00:48:31.031Z,100681.75
2023-04-15T00:50:33.577Z,100686.19
2023-04-15T00:52:35.386Z,100684.47
2023-04-15T00:54:37.681Z,100685.19
2023-04-15T00:56:39.935Z,100695.41
2023-04-15T00:58:42.122Z,100692.03
2023-04-15T01:00:44.214Z,100691.28
2023-04-15T01:02:46.212Z,100693.91
2023-04-15T01:04:48.613Z,100699.09
2023-04-15T01:06:50.373Z,100704.09
2023-04-15T01:08:52.125Z,100699.03
2023-04-15T01:10:58.463Z,100711.03
2023-04-15T01:13:03.237Z,100715.84
2023-04-15T01:15:05.909Z,100728.63
2023-04-15T01:17:07.717Z,100733.22
2023-04-15T01:19:11.033Z,100731.50
2023-04-15T01:21:12.777Z,100723.81
2023-04-15T01:23:14.702Z,100729.63
2023-04-15T01:25:19.741Z,100731.50
2023-04-15T01:27:22.363Z,100731.34
2023-04-15T01:29:24.194Z,100734.88
2023-04-15T01:31:26.040Z,100739.78
2023-04-15T01:33:28.956Z,100735.66
2023-04-15T01:35:31.066Z,100739.91
2023-04-15T01:37:33.275Z,100747.63
2023-04-15T01:39:35.552Z,100760.56
2023-04-15T01:41:37.292Z,100755.28
2023-04-15T01:43:39.024Z,100757.84
2023-04-15T01:45:40.920Z,100758.41
2023-04-15T01:47:42.716Z,100757.72
2023-04-15T01:49:44.513Z,100767.22
2023-04-15T01:51:46.309Z,100771.47
2023-04-15T01:53:48.038Z,100773.16
2023-04-15T01:55:49.829Z,100777.28
2023-04-15T01:57:52.526Z,100774.91
2023-04-15T01:59:54.238Z,100780.78
2023-04-15T02:01:58.715Z,100782.41
2023-04-15T02:04:01.181Z,100788.38
2023-04-15T02:06:04.666Z,100788.34
2023-04-15T02:08:06.428Z,100789.91
2023-04-15T02:10:09.525Z,100787.34
2023-04-15T02:12:11.467Z,100796.00
2023-04-15T02:14:13.436Z,100792.59
2023-04-15T02:16:19.797Z,100801.88
2023-04-15T02:18:21.766Z,100800.78
2023-04-15T02:20:23.703Z,100800.88
2023-04-15T02:22:30.435Z,100801.72
2023-04-15T02:24:32.184Z,100813.66
2023-04-15T02:26:33.918Z,100809.34
2023-04-15T02:28:35.955Z,100816.13
2023-04-15T02:30:37.754Z,100813.53
2023-04-15T02:32:40.487Z,100824.63
2023-04-15T02:34:42.852Z,100826.44
2023-04-15T02:36:44.706Z,100834.09
2023-04-15T02:38:46.439Z,100830.69
2023-04-15T02:40:49.902Z,100836.50
2023-04-15T02:42:51.719Z,100839.09
2023-04-15T02:44:54.957Z,100838.53
2023-04-15T02:46:56.869Z,100838.44
2023-04-15T02:49:00.357Z,100835.88
2023-04-15T02:51:22.732Z,100842.78
2023-04-15T02:53:24.564Z,100841.94
2023-04-15T02:55:26.336Z,100853.94
2023-04-15T02:57:29.713Z,100863.25
2023-04-15T02:59:31.782Z,100862.19
2023-04-15T03:01:33.554Z,100860.63
2023-04-15T03:03:35.865Z,100864.63
2023-04-15T03:05:39.341Z,100866.28
2023-04-15T03:07:41.241Z,100864.69
2023-04-15T03:09:43.085Z,100866.34
2023-04-15T03:11:44.875Z,100862.84
2023-04-15T03:13:46.566Z,100869.72
2023-04-15T03:15:48.691Z,100879.28
2023-04-15T03:17:50.777Z,100877.47
2023-04-15T03:19:52.485Z,100885.19
2023-04-15T03:21:54.157Z,100879.25
2023-04-15T03:23:56.718Z,100886.94
2023-04-15T03:25:59.989Z,100885.16
2023-04-15T03:28:01.788Z,100882.78
2023-04-15T03:30:03.866Z,100894.75
2023-04-15T03:32:08.089Z,100888.78
2023-04-15T03:34:09.827Z,100897.25
2023-04-15T03:36:11.622Z,100906.59
2023-04-15T03:38:13.365Z,100906.59
2023-04-15T03:40:15.131Z,100915.19
2023-04-15T03:42:16.809Z,100915.06
2023-04-15T03:44:18.553Z,100920.34
2023-04-15T03:46:20.487Z,100922.91
2023-04-15T03:48:22.258Z,100926.25
2023-04-15T03:50:23.978Z,100929.94
2023-04-15T03:52:25.720Z,100933.22
2023-04-15T03:54:27.392Z,100934.09
2023-04-15T03:56:29.171Z,100941.72
2023-04-15T03:58:30.903Z,100941.72
2023-04-15T04:00:32.564Z,100944.53
2023-04-15T04:02:34.399Z,100947.06
2023-04-15T04:04:36.508Z,100947.88
2023-04-15T04:06:38.228Z,100957.44
2023-04-15T04:08:40.057Z,100954.84
2023-04-15T04:10:42.085Z,100958.03
2023-04-15T04:12:43.765Z,100967.53
2023-04-15T04:14:45.779Z,100965.81
2023-04-15T04:16:47.492Z,100970.97
2023-04-15T04:18:49.259Z,100973.59
2023-04-15T04:20:51.379Z,100968.47
2023-04-15T04:22:53.074Z,100975.50
2023-04-15T04:24:54.865Z,100975.38
2023-04-15T04:26:57.343Z,100985.63
2023-04-15T04:28:59.241Z,100990.72
2023-04-15T04:31:01.365Z,100990.69
2023-04-15T04:33:03.242Z,100997.50
2023-04-15T04:35:05.648Z,100999.06
2023-04-15T04:37:07.432Z,101012.13
2023-04-15T04:39:09.234Z,101013.81
2023-04-15T04:41:11.024Z,101017.25
2023-04-15T04:43:13.326Z,101023.25
2023-04-15T04:45:15.250Z,101026.69
2023-04-15T04:47:16.998Z,101024.81
2023-04-15T04:49:21.219Z,101028.16
2023-04-15T04:51:23.087Z,101033.34
2023-04-15T04:53:24.829Z,101036.03
2023-04-15T04:55:27.401Z,101026.56
2023-04-15T04:57:29.126Z,101041.13
2023-04-15T04:59:30.895Z,101046.38
2023-04-15T05:01:32.734Z,101050.78
2023-04-15T05:03:34.640Z,101054.97
2023-04-15T05:05:39.514Z,101056.66
2023-04-15T05:07:41.335Z,101060.09
2023-04-15T05:09:43.095Z,101064.31
2023-04-15T05:11:44.822Z,101071.84
2023-04-15T05:13:46.560Z,101076.31
2023-04-15T05:15:48.384Z,101076.31
2023-04-15T05:17:50.224Z,101076.16
2023-04-15T05:19:52.024Z,101089.03
2023-04-15T05:21:53.799Z,101095.13
2023-04-15T05:23:55.637Z,101101.97
2023-04-15T05:25:57.374Z,101112.22
2023-04-15T05:27:59.347Z,101104.72
2023-04-15T05:30:01.292Z,101115.00
2023-04-15T05:32:06.242Z,101126.19
2023-04-15T05:34:08.310Z,101132.16
2023-04-15T05:36:10.334Z,101134.69
2023-04-15T05:38:12.155Z,101139.75
2023-04-15T05:40:14.505Z,101143.34
2023-04-15T05:42:16.229Z,101152.78
2023-04-15T05:44:17.961Z,101156.31
2023-04-15T05:46:19.862Z,101169.91
2023-04-15T05:48:21.729Z,101168.31
2023-04-15T05:50:23.495Z,101180.31
2023-04-15T05:52:25.813Z,101181.19
2023-04-15T05:54:28.038Z,101184.53
2023-04-15T05:56:29.778Z,101191.09
2023-04-15T05:58:31.523Z,101198.81
2023-04-15T06:00:33.338Z,101202.41
2023-04-15T06:02:35.300Z,101204.78
2023-04-15T06:04:37.284Z,101214.38
2023-04-15T06:06:39.060Z,101210.28
2023-04-15T06:08:40.800Z,101218.47
2023-04-15T06:10:42.880Z,101219.47
2023-04-15T06:12:47.086Z,101218.69
2023-04-15T06:14:48.841Z,101222.16
2023-04-15T06:16:50.520Z,101223.91
2023-04-15T06:18:52.264Z,101224.00
2023-04-15T06:20:54.010Z,101227.47
2023-04-15T06:22:55.751Z,101224.16
2023-04-15T06:24:57.653Z,101234.41
2023-04-15T06:26:59.444Z,101241.19
2023-04-15T06:29:01.721Z,101238.72
2023-04-15T06:31:04.005Z,101244.13
2023-04-15T06:33:06.639Z,101243.47
2023-04-15T06:35:11.724Z,101254.00
2023-04-15T06:37:16.341Z,101247.28
2023-04-15T06:39:18.077Z,101254.94
2023-04-15T06:41:22.266Z,101263.28
2023-04-15T06:43:24.353Z,101271.25
2023-04-15T06:45:26.065Z,101271.25
2023-04-15T06:47:27.960Z,101269.94
2023-04-15T06:49:29.865Z,101285.31
2023-04-15T06:51:32.895Z,101281.91
2023-04-15T06:53:35.750Z,101294.06
2023-04-15T06:55:37.585Z,101290.69
2023-04-15T06:57:39.464Z,101296.78
2023-04-15T06:59:41.302Z,101299.38
2023-04-15T07:01:43.264Z,101300.34
2023-04-15T07:03:45.087Z,101312.22
2023-04-15T07:05:46.867Z,101314.75
2023-04-15T07:07:48.616Z,101324.06
2023-04-15T07:09:50.647Z,101324.28
2023-04-15T07:11:52.700Z,101323.31
2023-04-15T07:13:54.539Z,101329.34
2023-04-15T07:15:56.962Z,101336.28
2023-04-15T07:17:58.806Z,101351.13
2023-04-15T07:20:00.597Z,101347.56
2023-04-15T07:22:02.377Z,101353.66
2023-04-15T07:24:04.475Z,101358.84
2023-04-15T07:26:06.402Z,101366.41
2023-04-15T07:28:08.207Z,101364.81
2023-04-15T07:30:10.768Z,101370.09
2023-04-15T07:32:12.499Z,101372.75
2023-04-15T07:34:14.298Z,101380.72
2023-04-15T07:36:18.888Z,101384.72
2023-04-15T07:38:20.706Z,101382.72
2023-04-15T07:40:22.514Z,101391.25
2023-04-15T07:42:24.458Z,101393.06
2023-04-15T07:44:27.335Z,101407.75
2023-04-15T07:46:29.425Z,101407.41
2023-04-15T07:48:31.583Z,101410.38
2023-04-15T07:50:33.637Z,101420.50
2023-04-15T07:52:39.317Z,101416.19
2023-04-15T07:54:41.182Z,101422.00
2023-04-15T07:56:43.260Z,101425.69
2023-04-15T07:58:44.987Z,101431.03
2023-04-15T08:00:46.968Z,101435.53
2023-04-15T08:02:50.150Z,101435.44
2023-04-15T08:04:53.272Z,101437.38
2023-04-15T08:06:55.315Z,101444.41
2023-04-15T08:08:57.175Z,101446.97
2023-04-15T08:10:59.149Z,101447.88
2023-04-15T08:13:01.202Z,101449.63
2023-04-15T08:15:03.162Z,101449.53
2023-04-15T08:17:05.717Z,101449.03
2023-04-15T08:19:07.603Z,101455.19
2023-04-15T08:21:10.330Z,101459.41
2023-04-15T08:23:12.119Z,101462.22
2023-04-15T08:25:14.008Z,101460.66
2023-04-15T08:27:15.877Z,101463.41
2023-04-15T08:29:17.740Z,101474.75
2023-04-15T08:31:19.892Z,101473.91
2023-04-15T08:33:22.073Z,101470.94
2023-04-15T08:35:23.928Z,101473.78
2023-04-15T08:37:26.894Z,101482.97
2023-04-15T08:39:28.815Z,101478.84
2023-04-15T08:41:40.006Z,101486.09
2023-04-15T08:43:49.660Z,101493.91
2023-04-15T08:45:53.209Z,101494.78
2023-04-15T08:47:56.995Z,101496.75
2023-04-15T08:49:59.615Z,101501.78
2023-04-15T08:52:02.982Z,101504.53
2023-04-15T08:54:05.372Z,101516.66
2023-04-15T08:56:10.250Z,101514.81
2023-04-15T08:58:13.572Z,101516.59
2023-04-15T09:00:16.351Z,101515.22
2023-04-15T09:02:18.536Z,101513.44
2023-04-15T09:04:20.810Z,101519.44
2023-04-15T09:06:23.283Z,101518.56
2023-04-15T09:08:25.354Z,101530.88
2023-04-15T09:10:27.827Z,101528.31
2023-04-15T09:12:29.706Z,101534.56
2023-04-15T09:14:32.711Z,101537.97
2023-04-15T09:16:59.014Z,101543.25
2023-04-15T09:19:01.001Z,101544.19
2023-04-15T09:21:08.852Z,101546.59
2023-04-15T09:23:15.008Z,101556.38
2023-04-15T09:25:25.392Z,101562.53
2023-04-15T09:27:27.178Z,101568.50
2023-04-15T09:29:29.209Z,101568.59
2023-04-15T09:31:31.579Z,101578.16
2023-04-15T09:33:33.403Z,101580.13
2023-04-15T09:35:36.516Z,101592.47
2023-04-15T09:37:38.290Z,101595.16
2023-04-15T09:39:50.714Z,101603.22
2023-04-15T09:42:06.994Z,101610.06
2023-04-15T09:44:26.133Z,101618.94
2023-04-15T09:46:45.485Z,101622.44
2023-04-15T09:48:47.529Z,101632.94
2023-04-15T09:50:50.418Z,101633.78
2023-04-15T09:52:52.216Z,101639.31
2023-04-15T09:54:56.690Z,101637.56
2023-04-15T09:57:06.352Z,101654.16
2023-04-15T09:59:09.690Z,101652.22
2023-04-15T10:01:11.909Z,101648.00
2023-04-15T10:03:19.209Z,101652.13
2023-04-15T10:05:22.264Z,101649.03
2023-04-15T10:07:24.241Z,101656.00
2023-04-15T10:09:26.951Z,101659.53
2023-04-15T10:11:31.506Z,101660.38
2023-04-15T10:13:35.331Z,101659.72
2023-04-15T10:15:38.813Z,101664.16
2023-04-15T10:17:44.942Z,101667.44
2023-04-15T10:19:48.495Z,101666.06
2023-04-15T10:21:51.374Z,101669.56
2023-04-15T10:23:53.690Z,101674.56
2023-04-15T10:25:55.706Z,101681.72
2023-04-15T10:27:58.463Z,101676.03
2023-04-15T10:30:03.936Z,101693.41
2023-04-15T10:32:06.032Z,101693.56
2023-04-15T10:34:08.975Z,101699.75
2023-04-15T10:36:11.800Z,101704.00
2023-04-15T10:38:33.328Z,101704.75
2023-04-15T10:40:35.786Z,101709.31
2023-04-15T10:42:40.871Z,101719.38
2023-04-15T10:44:45.076Z,101717.94
2023-04-15T10:46:47.534Z,101717.69
2023-04-15T10:48:51.589Z,101711.66
2023-04-15T10:50:57.652Z,101720.50
2023-04-15T10:53:02.579Z,101722.22
2023-04-15T10:55:15.906Z,101724.09
2023-04-15T10:57:23.786Z,101718.84
2023-04-15T10:59:25.655Z,101716.19
2023-04-15T11:01:51.677Z,101727.22
2023-04-15T11:03:55.957Z,101727.50
2023-04-15T11:05:58.250Z,101739.59
2023-04-15T11:07:59.982Z,101732.63
2023-04-15T11:10:02.188Z,101738.16
2023-04-15T11:12:09.930Z,101743.34
2023-04-15T11:14:22.207Z,101743.91
2023-04-15T11:16:24.282Z,101744.28
2023-04-15T11:18:30.190Z,101741.91
2023-04-15T11:20:32.600Z,101735.13
2023-04-15T11:22:34.471Z,101740.56
2023-04-15T11:24:37.248Z,101743.19
2023-04-15T11:26:40.182Z,101747.75
2023-04-15T11:28:45.970Z,101750.69
2023-04-15T11:30:48.565Z,101749.88
2023-04-15T11:32:51.762Z,101744.97
2023-04-15T11:34:53.550Z,101746.84
2023-04-15T11:36:57.323Z,101751.59
2023-04-15T11:38:59.969Z,101756.28
2023-04-15T11:41:01.919Z,101758.03
2023-04-15T11:43:07.071Z,101769.03
2023-04-15T11:45:12.288Z,101758.25
2023-04-15T11:47:24.106Z,101768.88
2023-04-15T11:49:29.516Z,101767.69
2023-04-15T11:51:34.496Z,101770.56
2023-04-15T11:53:42.838Z,101767.97
2023-04-15T11:55:48.040Z,101768.22
2023-04-15T11:57:51.754Z,101766.47
2023-04-15T11:59:55.514Z,101767.59
2023-04-15T12:01:57.468Z,101769.38
2023-04-15T12:04:01.786Z,101772.50
2023-04-15T12:06:05.354Z,101771.16
2023-04-15T12:08:07.497Z,101774.16
2023-04-15T12:10:12.411Z,101766.91
2023-04-15T12:12:16.766Z,101770.63
2023-04-15T12:14:22.541Z,101771.69
2023-04-15T12:16:25.371Z,101769.31
2023-04-15T12:18:27.126Z,101779.66
2023-04-15T12:20:31.506Z,101786.44
2023-04-15T12:22:38.354Z,101789.13
2023-04-15T12:24:40.653Z,101784.44
2023-04-15T12:26:46.550Z,101787.19
2023-04-15T12:28:48.346Z,101797.66
2023-04-15T12:30:51.758Z,101794.34
2023-04-15T12:32:53.753Z,101795.16
2023-04-15T12:34:55.706Z,101803.13
2023-04-15T12:36:59.393Z,101798.06
2023-04-15T12:39:01.270Z,101798.38
2023-04-15T12:41:03.134Z,101800.28
2023-04-15T12:43:05.189Z,101803.56
2023-04-15T12:45:07.799Z,101804.59
2023-04-15T12:47:11.045Z,101801.28
2023-04-15T12:49:14.957Z,101801.44
2023-04-15T12:51:16.891Z,101797.31
2023-04-15T12:53:21.138Z,101795.00
2023-04-15T12:55:23.009Z,101793.19
2023-04-15T12:57:24.830Z,101801.44
2023-04-15T12:59:26.712Z,101806.81
2023-04-15T13:01:28.871Z,101806.19
2023-04-15T13:03:30.959Z,101810.75
2023-04-15T13:05:33.100Z,101813.63
2023-04-15T13:07:34.943Z,101812.78
2023-04-15T13:09:36.900Z,101812.78
2023-04-15T13:11:38.993Z,101822.28
2023-04-15T13:13:41.253Z,101817.78
2023-04-15T13:15:45.922Z,101820.41
2023-04-15T13:17:50.269Z,101823.13
2023-04-15T13:19:52.269Z,101825.03
2023-04-15T13:21:54.207Z,101826.03
2023-04-15T13:23:56.228Z,101827.81
2023-04-15T13:25:58.211Z,101824.59
2023-04-15T13:28:01.397Z,101826.47
2023-04-15T13:30:03.972Z,101826.53
2023-04-15T13:32:06.703Z,101832.59
2023-04-15T13:34:08.532Z,101829.88
2023-04-15T13:36:10.592Z,101840.19
2023-04-15T13:38:12.396Z,101838.25
2023-04-15T13:40:14.269Z,101844.09
2023-04-15T13:42:16.159Z,101840.56
2023-04-15T13:44:18.744Z,101851.97
2023-04-15T13:46:21.908Z,101846.91
2023-04-15T13:48:24.046Z,101853.97
2023-04-15T13:50:25.871Z,101851.56
2023-04-15T13:52:27.719Z,101855.28
2023-04-15T13:54:37.501Z,101862.38
2023-04-15T13:56:40.075Z,101859.97
2023-04-15T13:58:42.004Z,101852.28
2023-04-15T14:00:44.198Z,101854.13
2023-04-15T14:02:46.634Z,101856.88
2023-04-15T14:04:48.489Z,101852.56
2023-04-15T14:06:51.013Z,101855.25
2023-04-15T14:08:53.296Z,101857.94
2023-04-15T14:10:55.118Z,101859.84
2023-04-15T14:12:56.989Z,101859.91
2023-04-15T14:14:59.089Z,101858.28
2023-04-15T14:17:01.169Z,101863.56
2023-04-15T14:19:03.841Z,101868.72
2023-04-15T14:21:07.356Z,101867.84
2023-04-15T14:23:09.162Z,101872.06
2023-04-15T14:25:17.290Z,101875.38
2023-04-15T14:27:25.230Z,101871.75
2023-04-15T14:29:27.171Z,101868.13
2023-04-15T14:31:29.035Z,101876.72
2023-04-15T14:33:30.971Z,101880.03
2023-04-15T14:35:33.027Z,101883.53
2023-04-15T14:37:34.903Z,101883.72
2023-04-15T14:39:36.684Z,101876.84
2023-04-15T14:41:38.505Z,101876.00
2023-04-15T14:43:40.462Z,101879.50
2023-04-15T14:45:44.579Z,101879.38
2023-04-15T14:47:47.923Z,101888.00
2023-04-15T14:49:49.832Z,101886.22
2023-04-15T14:51:51.704Z,101891.34
2023-04-15T14:53:53.578Z,101891.16
2023-04-15T14:55:55.557Z,101892.69
2023-04-15T14:57:57.584Z,101895.16
2023-04-15T14:59:59.399Z,101894.97
2023-04-15T15:02:01.545Z,101895.84
2023-04-15T15:04:04.241Z,101897.53
2023-04-15T15:06:06.368Z,101901.84
2023-04-15T15:08:09.488Z,101904.38
2023-04-15T15:10:11.340Z,101902.78
2023-04-15T15:12:13.184Z,101901.13
2023-04-15T15:14:14.981Z,101901.97
2023-04-15T15:16:16.932Z,101912.31
2023-04-15T15:18:19.641Z,101903.75
2023-04-15T15:20:21.913Z,101906.56
2023-04-15T15:22:23.798Z,101905.13
2023-04-15T15:24:25.776Z,101910.63
2023-04-15T15:26:28.354Z,101903.94
2023-04-15T15:28:30.148Z,101905.03
2023-04-15T15:30:32.085Z,101907.75
2023-04-15T15:32:34.291Z,101905.28
2023-04-15T15:34:36.155Z,101902.72
2023-04-15T15:36:38.000Z,101910.66
2023-04-15T15:38:41.797Z,101914.13
2023-04-15T15:40:43.770Z,101910.72
2023-04-15T15:42:47.353Z,101905.50
2023-04-15T15:44:50.209Z,101905.59
2023-04-15T15:46:52.042Z,101910.84
2023-04-15T15:48:54.396Z,101918.69
2023-04-15T15:50:56.371Z,101923.03
2023-04-15T15:52:58.983Z,101930.03
2023-04-15T15:55:02.032Z,101920.44
2023-04-15T15:57:04.197Z,101933.50
2023-04-15T15:59:06.340Z,101928.28
2023-04-15T16:01:08.385Z,101927.44
2023-04-15T16:03:10.431Z,101929.16
2023-04-15T16:05:12.515Z,101935.25
2023-04-15T16:07:16.603Z,101924.81
2023-04-15T16:09:18.719Z,101932.66
2023-04-15T16:11:23.695Z,101928.31
2023-04-15T16:13:25.810Z,101940.50
2023-04-15T16:15:27.915Z,101939.63
2023-04-15T16:17:29.845Z,101942.22
2023-04-15T16:19:31.884Z,101942.22
2023-04-15T16:21:48.588Z,101940.47
2023-04-15T16:23:51.135Z,101943.03
2023-04-15T16:25:53.109Z,101948.16
2023-04-15T16:28:05.578Z,101951.50
2023-04-15T16:30:14.591Z,101959.25
2023-04-15T16:32:16.888Z,101962.59
2023-04-15T16:34:21.125Z,101964.22
2023-04-15T16:36:30.014Z,101970.84
2023-04-15T16:38:32.192Z,101971.69
2023-04-15T16:40:34.480Z,101981.03
2023-04-15T16:42:37.027Z,101978.16
2023-04-15T16:44:39.314Z,101979.88
2023-04-15T16:46:41.775Z,101986.66
2023-04-15T16:48:43.836Z,101990.03
2023-04-15T16:50:46.255Z,101979.41
2023-04-15T16:52:48.206Z,101983.50
2023-04-15T16:54:50.125Z,101986.06
2023-04-15T16:56:52.077Z,101987.63
2023-04-15T16:58:53.915Z,101992.63
2023-04-15T17:00:56.089Z,101989.94
2023-04-15T17:02:58.511Z,101991.41
2023-04-15T17:05:00.550Z,102003.50
2023-04-15T17:07:02.598Z,102000.75
2023-04-15T17:09:05.112Z,102012.66
2023-04-15T17:11:07.267Z,102018.72
2023-04-15T17:13:09.239Z,102013.53
2023-04-15T17:15:11.257Z,102012.66
2023-04-15T17:17:13.315Z,102017.84
2023-04-15T17:19:15.609Z,102015.09
2023-04-15T17:21:17.951Z,102019.38
2023-04-15T17:23:19.795Z,102020.91
2023-04-15T17:25:22.129Z,102022.56
2023-04-15T17:27:24.953Z,102023.22
2023-04-15T17:29:27.205Z,102038.81
2023-04-15T17:31:30.553Z,102032.50
2023-04-15T17:34:00.500Z,102028.25
2023-04-15T17:35:58.347Z,102037.63
2023-04-15T17:38:00.209Z,102046.06
2023-04-15T17:40:02.309Z,102046.00
2023-04-15T17:42:04.527Z,102055.44
2023-04-15T17:44:06.507Z,102052.44
2023-04-15T17:46:08.662Z,102064.31
2023-04-15T17:48:10.556Z,102070.28
2023-04-15T17:50:12.369Z,102062.19
2023-04-15T17:52:14.636Z,102067.56
2023-04-15T17:54:16.449Z,102069.00
2023-04-15T17:56:18.490Z,102075.50
2023-04-15T17:58:20.591Z,102077.28
2023-04-15T18:00:22.899Z,102076.34
2023-04-15T18:02:24.933Z,102082.16
2023-04-15T18:04:27.170Z,102085.81
2023-04-15T18:06:29.316Z,102083.81
2023-04-15T18:08:31.686Z,102092.94
2023-04-15T18:10:34.506Z,102090.03
2023-04-15T18:12:36.409Z,102094.38
2023-04-15T18:14:38.272Z,102109.59
2023-04-15T18:16:40.813Z,102109.41
2023-04-15T18:18:42.961Z,102113.91
2023-04-15T18:20:50.238Z,102110.28
2023-04-15T18:22:52.831Z,102115.28
2023-04-15T18:24:54.935Z,102118.81
2023-04-15T18:26:57.279Z,102120.63
2023-04-15T18:28:59.209Z,102116.97
2023-04-15T18:31:01.746Z,102117.88
2023-04-15T18:33:03.812Z,102114.59
2023-04-15T18:35:06.856Z,102112.03
2023-04-15T18:37:08.787Z,102120.53
2023-04-15T18:39:10.821Z,102115.47
2023-04-15T18:41:12.755Z,102123.28
2023-04-15T18:43:14.727Z,102124.13
2023-04-15T18:45:16.748Z,102131.09
2023-04-15T18:47:18.883Z,102123.28
2023-04-15T18:49:21.162Z,102135.28
2023-04-15T18:51:25.973Z,102140.28
2023-04-15T18:53:28.155Z,102141.75
2023-04-15T18:55:30.156Z,102137.56
2023-04-15T18:57:35.746Z,102137.31
2023-04-15T18:59:38.796Z,102140.44
2023-04-15T19:01:40.939Z,102146.16
2023-04-15T19:03:42.887Z,102141.09
2023-04-15T19:05:44.968Z,102144.53
2023-04-15T19:07:46.882Z,102147.78
2023-04-15T19:09:48.726Z,102143.44
2023-04-15T19:11:50.694Z,102141.28
2023-04-15T19:13:53.295Z,102138.56
2023-04-15T19:15:55.334Z,102140.38
2023-04-15T19:17:57.309Z,102150.59
2023-04-15T19:19:59.092Z,102155.53
2023-04-15T19:22:01.766Z,102162.75
2023-04-15T19:24:03.734Z,102154.25
2023-04-15T19:26:08.283Z,102160.31
2023-04-15T19:28:10.323Z,102164.72
2023-04-15T19:30:14.484Z,102167.06
2023-04-15T19:32:16.446Z,102165.41
2023-04-15T19:34:18.354Z,102172.19
2023-04-15T19:36:20.120Z,102174.03
2023-04-15T19:38:21.988Z,102181.75
2023-04-15T19:40:23.833Z,102177.41
2023-04-15T19:42:25.667Z,102179.16
2023-04-15T19:44:27.500Z,102184.28
2023-04-15T19:46:29.652Z,102187.72
2023-04-15T19:48:31.450Z,102189.47
2023-04-15T19:50:33.397Z,102180.81
2023-04-15T19:52:35.271Z,102187.75
2023-04-15T19:54:37.201Z,102192.84
2023-04-15T19:56:39.096Z,102194.50
2023-04-15T19:58:40.970Z,102197.88
2023-04-15T20:00:43.073Z,102195.28
2023-04-15T20:02:45.069Z,102203.00
2023-04-15T20:04:47.238Z,102200.38
2023-04-15T20:06:49.804Z,102205.97
2023-04-15T20:08:52.120Z,102207.78
2023-04-15T20:10:54.151Z,102209.41
2023-04-15T20:12:55.969Z,102219.75
2023-04-15T20:14:57.750Z,102220.53
2023-04-15T20:16:59.624Z,102231.66
2023-04-15T20:19:07.489Z,102227.09
2023-04-15T20:21:09.352Z,102233.03
2023-04-15T20:23:11.149Z,102238.72
2023-04-15T20:25:13.024Z,102240.50
2023-04-15T20:27:14.931Z,102244.81
2023-04-15T20:29:16.929Z,102245.66
2023-04-15T20:31:18.810Z,102239.53
2023-04-15T20:33:22.290Z,102254.94
2023-04-15T20:35:28.232Z,102251.56
2023-04-15T20:37:31.142Z,102257.44
2023-04-15T20:39:34.405Z,102254.59
2023-04-15T20:41:36.192Z,102261.66
2023-04-15T20:43:37.968Z,102258.06
2023-04-15T20:45:39.808Z,102267.66
2023-04-15T20:47:41.816Z,102269.41
2023-04-15T20:49:43.739Z,102266.69
2023-04-15T20:51:45.619Z,102269.13
2023-04-15T20:53:47.449Z,102267.91
2023-04-15T20:55:49.253Z,102273.44
2023-04-15T20:57:51.367Z,102268.75
2023-04-15T20:59:53.196Z,102273.09
2023-04-15T21:01:57.036Z,102273.41
2023-04-15T21:03:59.495Z,102272.53
2023-04-15T21:06:01.399Z,102270.34
2023-04-15T21:08:03.241Z,102274.88
2023-04-15T21:10:05.559Z,102279.31
2023-04-15T21:12:07.678Z,102281.66
2023-04-15T21:14:09.645Z,102283.94
2023-04-15T21:16:11.412Z,102278.97
2023-04-15T21:18:13.376Z,102282.19
2023-04-15T21:20:15.284Z,102284.81
2023-04-15T21:22:17.017Z,102291.84
2023-04-15T21:24:18.775Z,102296.84
2023-04-15T21:26:20.593Z,102292.72
2023-04-15T21:28:22.695Z,102282.53
2023-04-15T21:30:24.610Z,102287.91
2023-04-15T21:32:26.500Z,102284.16
2023-04-15T21:34:28.355Z,102295.19
2023-04-15T21:36:30.394Z,102287.44
2023-04-15T21:38:32.873Z,102294.00
2023-04-15T21:40:34.687Z,102294.22
2023-04-15T21:42:36.548Z,102295.09
2023-04-15T21:44:38.340Z,102294.06
2023-04-15T21:46:40.225Z,102295.59
2023-04-15T21:48:42.095Z,102295.91
2023-04-15T21:50:44.480Z,102301.06
2023-04-15T21:52:46.288Z,102296.78
2023-04-15T21:54:48.075Z,102303.59
2023-04-15T21:56:50.979Z,102300.66
2023-04-15T21:58:56.952Z,102301.53
2023-04-15T22:01:00.560Z,102315.94
2023-04-15T22:03:02.648Z,102308.31
2023-04-15T22:05:05.325Z,102309.97
2023-04-15T22:07:09.709Z,102305.75
2023-04-15T22:09:13.976Z,102315.84
2023-04-15T22:11:23.157Z,102313.97
2023-04-15T22:13:24.963Z,102313.97
2023-04-15T22:15:26.945Z,102319.00
2023-04-15T22:17:29.113Z,102314.59
2023-04-15T22:19:31.280Z,102311.97
2023-04-15T22:21:33.147Z,102325.03
2023-04-15T22:23:34.990Z,102322.03
2023-04-15T22:25:37.459Z,102325.44
2023-04-15T22:27:39.333Z,102318.41
2023-04-15T22:29:41.176Z,102320.84
2023-04-15T22:31:45.972Z,102327.38
2023-04-15T22:33:50.421Z,102323.41
2023-04-15T22:35:52.267Z,102327.94
2023-04-15T22:37:54.224Z,102329.28
2023-04-15T22:39:56.629Z,102326.69
2023-04-15T22:41:58.414Z,102333.88
2023-04-15T22:44:03.156Z,102330.38
2023-04-15T22:46:05.048Z,102333.16
2023-04-15T22:48:06.927Z,102329.94
2023-04-15T22:50:09.339Z,102332.97
2023-04-15T22:52:17.163Z,102334.72
2023-04-15T22:54:21.927Z,102331.88
2023-04-15T22:56:23.798Z,102339.13
2023-04-15T22:58:25.657Z,102338.63
2023-04-15T23:00:27.544Z,102336.72
2023-04-15T23:02:29.439Z,102342.03
2023-04-15T23:04:33.922Z,102337.47
2023-04-15T23:06:35.856Z,102336.88
2023-04-15T23:08:38.120Z,102334.22
2023-04-15T23:10:40.528Z,102334.22
2023-04-15T23:12:42.342Z,102338.69
2023-04-15T23:14:44.081Z,102341.09
2023-04-15T23:16:45.906Z,102335.50
2023-04-15T23:18:47.676Z,102347.88
2023-04-15T23:20:49.522Z,102341.75
2023-04-15T23:22:51.317Z,102349.19